sensor_id;sensor_type;location;lat;lon;timestamp;pressure;altitude;pressure_sealevel;temperature;humidity
28448;BME280;15675;52.870;-1.416;2023-02-18T00:01:17;101359.00;;;12.85;100.00
28448;BME280;15675;52.870;-1.416;2023-02-18T00:03:42;101345.75;;;12.40;100.00
28448;BME280;15675;52.870;-1.416;2023-02-18T00:06:25;101336.19;;;12.33;100.00
28448;BME280;15675;52.870;-1.416;2023-02-18T00:08:52;101344.91;;;12.41;100.00
28448;BME280;15675;52.870;-1.416;2023-02-18T00:11:19;101341.38;;;12.30;100.00
28448;BME280;15675;52.870;-1.416;2023-02-18T00:13:51;101350.06;;;12.35;100.00
28448;BME280;15675;52.870;-1.416;2023-02-18T00:16:18;101338.81;;;12.39;100.00
28448;BME280;15675;52.870;-1.416;2023-02-18T00:18:43;101321.50;;;12.43;100.00
28448;BME280;15675;52.870;-1.416;2023-02-18T00:21:09;101323.06;;;12.16;100.00
28448;BME280;15675;52.870;-1.416;2023-02-18T00:23:35;101323.13;;;12.27;100.00
28448;BME280;15675;52.870;-1.416;2023-02-18T00:26:12;101320.44;;;12.15;100.00
28448;BME280;15675;52.870;-1.416;2023-02-18T00:28:38;101323.97;;;12.24;100.00
28448;BME280;15675;52.870;-1.416;2023-02-18T00:31:15;101310.88;;;12.12;100.00
28448;BME280;15675;52.870;-1.416;2023-02-18T00:33:41;101310.88;;;12.12;100.00
28448;BME280;15675;52.870;-1.416;2023-02-18T00:36:10;101329.19;;;12.26;100.00
28448;BME280;15675;52.870;-1.416;2023-02-18T00:38:36;101323.91;;;12.17;100.00
28448;BME280;15675;52.870;-1.416;2023-02-18T00:41:02;101322.94;;;11.99;100.00
28448;BME280;15675;52.870;-1.416;2023-02-18T00:43:28;101330.78;;;12.05;100.00
28448;BME280;15675;52.870;-1.416;2023-02-18T00:45:53;101325.56;;;12.07;100.00
28448;BME280;15675;52.870;-1.416;2023-02-18T00:48:19;101320.41;;;12.10;100.00
28448;BME280;15675;52.870;-1.416;2023-02-18T00:50:45;101300.34;;;11.94;100.00
28448;BME280;15675;52.870;-1.416;2023-02-18T00:53:11;101306.47;;;12.00;100.00
28448;BME280;15675;52.870;-1.416;2023-02-18T00:55:43;101292.50;;;11.92;100.00
28448;BME280;15675;52.870;-1.416;2023-02-18T00:58:10;101276.84;;;11.84;100.00
28448;BME280;15675;52.870;-1.416;2023-02-18T01:00:36;101292.31;;;11.67;100.00
28448;BME280;15675;52.870;-1.416;2023-02-18T01:03:02;101282.81;;;11.75;100.00
28448;BME280;15675;52.870;-1.416;2023-02-18T01:05:27;101285.28;;;11.57;100.00
28448;BME280;15675;52.870;-1.416;2023-02-18T01:07:53;101274.00;;;11.55;100.00
28448;BME280;15675;52.870;-1.416;2023-02-18T01:10:19;101289.97;;;11.97;100.00
28448;BME280;15675;52.870;-1.416;2023-02-18T01:12:44;101289.75;;;11.72;100.00
28448;BME280;15675;52.870;-1.416;2023-02-18T01:15:13;101270.63;;;11.68;100.00
28448;BME280;15675;52.870;-1.416;2023-02-18T01:17:39;101278.59;;;11.88;100.00
28448;BME280;15675;52.870;-1.416;2023-02-18T01:20:07;101272.41;;;11.72;100.00
28448;BME280;15675;52.870;-1.416;2023-02-18T01:22:32;101256.88;;;11.82;100.00
28448;BME280;15675;52.870;-1.416;2023-02-18T01:24:58;101269.03;;;11.84;100.00
28448;BME280;15675;52.870;-1.416;2023-02-18T01:27:24;101256.81;;;11.72;100.00
28448;BME280;15675;52.870;-1.416;2023-02-18T01:29:49;101254.34;;;11.91;100.00
28448;BME280;15675;52.870;-1.416;2023-02-18T01:32:15;101260.50;;;12.01;100.00
28448;BME280;15675;52.870;-1.416;2023-02-18T01:34:40;101263.94;;;11.97;100.00
28448;BME280;15675;52.870;-1.416;2023-02-18T01:37:06;101273.50;;;11.96;100.00
28448;BME280;15675;52.870;-1.416;2023-02-18T01:39:31;101260.50;;;12.04;100.00
28448;BME280;15675;52.870;-1.416;2023-02-18T01:41:57;101265.56;;;11.88;100.00
28448;BME280;15675;52.870;-1.416;2023-02-18T01:44:26;101252.56;;;11.88;100.00
28448;BME280;15675;52.870;-1.416;2023-02-18T01:46:52;101250.94;;;12.01;100.00
28448;BME280;15675;52.870;-1.416;2023-02-18T01:49:21;101253.63;;;12.07;100.00
28448;BME280;15675;52.870;-1.416;2023-02-18T01:51:51;101243.13;;;11.97;100.00
28448;BME280;15675;52.870;-1.416;2023-02-18T01:54:23;101242.28;;;11.99;100.00
28448;BME280;15675;52.870;-1.416;2023-02-18T01:57:05;101241.41;;;11.96;100.00
28448;BME280;15675;52.870;-1.416;2023-02-18T01:59:38;101238.00;;;12.06;100.00
28448;BME280;15675;52.870;-1.416;2023-02-18T02:02:06;101244.06;;;12.06;100.00
28448;BME280;15675;52.870;-1.416;2023-02-18T02:04:32;101238.91;;;12.16;100.00
28448;BME280;15675;52.870;-1.416;2023-02-18T02:06:58;101234.56;;;12.12;100.00
28448;BME280;15675;52.870;-1.416;2023-02-18T02:09:25;101221.56;;;12.18;100.00
28448;BME280;15675;52.870;-1.416;2023-02-18T02:25:51;101205.88;;;12.05;100.00
28448;BME280;15675;52.870;-1.416;2023-02-18T02:36:36;101185.84;;;11.92;100.00
28448;BME280;15675;52.870;-1.416;2023-02-18T02:39:42;101169.38;;;11.90;100.00
28448;BME280;15675;52.870;-1.416;2023-02-18T02:45:01;101164.25;;;12.02;100.00
28448;BME280;15675;52.870;-1.416;2023-02-18T02:47:52;101152.84;;;11.85;100.00
28448;BME280;15675;52.870;-1.416;2023-02-18T02:50:53;101161.50;;;11.78;100.00
28448;BME280;15675;52.870;-1.416;2023-02-18T02:53:26;101152.84;;;11.82;100.00
28448;BME280;15675;52.870;-1.416;2023-02-18T02:55:52;101138.94;;;11.75;100.00
28448;BME280;15675;52.870;-1.416;2023-02-18T02:58:20;101152.84;;;11.79;100.00
28448;BME280;15675;52.870;-1.416;2023-02-18T03:11:29;101111.13;;;11.60;100.00
28448;BME280;15675;52.870;-1.416;2023-02-18T03:14:34;101105.13;;;11.75;100.00
28448;BME280;15675;52.870;-1.416;2023-02-18T03:17:03;101097.22;;;11.58;100.00
28448;BME280;15675;52.870;-1.416;2023-02-18T03:19:38;101085.06;;;11.49;100.00
28448;BME280;15675;52.870;-1.416;2023-02-18T03:22:07;101085.91;;;11.48;100.00
28448;BME280;15675;52.870;-1.416;2023-02-18T03:24:40;101085.97;;;11.56;100.00
28448;BME280;15675;52.870;-1.416;2023-02-18T03:27:22;101067.69;;;11.42;100.00
28448;BME280;15675;52.870;-1.416;2023-02-18T03:29:55;101073.75;;;11.43;100.00
28448;BME280;15675;52.870;-1.416;2023-02-18T03:32:22;101093.66;;;11.39;100.00
28448;BME280;15675;52.870;-1.416;2023-02-18T03:34:53;101090.28;;;11.55;100.00
28448;BME280;15675;52.870;-1.416;2023-02-18T03:37:20;101072.88;;;11.39;100.00
28448;BME280;15675;52.870;-1.416;2023-02-18T03:39:50;101063.25;;;11.26;100.00
28448;BME280;15675;52.870;-1.416;2023-02-18T03:42:17;101077.25;;;11.48;100.00
28448;BME280;15675;52.870;-1.416;2023-02-18T03:44:44;101083.41;;;11.65;100.00
28448;BME280;15675;52.870;-1.416;2023-02-18T03:47:10;101065.13;;;11.48;100.00
28448;BME280;15675;52.870;-1.416;2023-02-18T03:49:36;101060.75;;;11.43;100.00
28448;BME280;15675;52.870;-1.416;2023-02-18T03:52:02;101053.84;;;11.43;100.00
28448;BME280;15675;52.870;-1.416;2023-02-18T03:54:27;101038.25;;;11.43;100.00
28448;BME280;15675;52.870;-1.416;2023-02-18T03:56:52;101060.84;;;11.58;100.00
28448;BME280;15675;52.870;-1.416;2023-02-18T03:59:18;101042.63;;;11.55;100.00
28448;BME280;15675;52.870;-1.416;2023-02-18T04:01:44;101033.81;;;11.30;100.00
28448;BME280;15675;52.870;-1.416;2023-02-18T04:04:09;101053.75;;;11.29;100.00
28448;BME280;15675;52.870;-1.416;2023-02-18T04:06:35;101057.28;;;11.39;100.00
28448;BME280;15675;52.870;-1.416;2023-02-18T04:09:01;101070.28;;;11.42;100.00
28448;BME280;15675;52.870;-1.416;2023-02-18T04:11:36;101055.56;;;11.46;100.00
28448;BME280;15675;52.870;-1.416;2023-02-18T04:14:02;101069.50;;;11.58;100.00
28448;BME280;15675;52.870;-1.416;2023-02-18T04:16:28;101073.84;;;11.56;100.00
28448;BME280;15675;52.870;-1.416;2023-02-18T04:18:54;101072.03;;;11.42;100.00
28448;BME280;15675;52.870;-1.416;2023-02-18T04:21:19;101061.66;;;11.45;100.00
28448;BME280;15675;52.870;-1.416;2023-02-18T04:23:44;101065.09;;;11.40;100.00
28448;BME280;15675;52.870;-1.416;2023-02-18T04:26:10;101061.66;;;11.45;100.00
28448;BME280;15675;52.870;-1.416;2023-02-18T04:28:35;101067.66;;;11.37;100.00
28448;BME280;15675;52.870;-1.416;2023-02-18T04:31:01;101067.78;;;11.61;100.00
28448;BME280;15675;52.870;-1.416;2023-02-18T04:33:26;101052.94;;;11.39;100.00
28448;BME280;15675;52.870;-1.416;2023-02-18T04:35:52;101056.53;;;11.63;100.00
28448;BME280;15675;52.870;-1.416;2023-02-18T04:38:18;101058.22;;;11.49;100.00
28448;BME280;15675;52.870;-1.416;2023-02-18T04:40:43;101050.34;;;11.38;100.00
28448;BME280;15675;52.870;-1.416;2023-02-18T04:43:09;101044.28;;;11.34;100.00
28448;BME280;15675;52.870;-1.416;2023-02-18T04:45:34;101047.66;;;11.24;100.00
28448;BME280;15675;52.870;-1.416;2023-02-18T04:48:00;101048.56;;;11.31;100.00
28448;BME280;15675;52.870;-1.416;2023-02-18T04:50:26;101041.69;;;11.40;100.00
28448;BME280;15675;52.870;-1.416;2023-02-18T04:52:51;101031.19;;;11.22;100.00
28448;BME280;15675;52.870;-1.416;2023-02-18T04:55:17;101042.53;;;11.32;100.00
28448;BME280;15675;52.870;-1.416;2023-02-18T04:57:42;101021.66;;;11.26;100.00
28448;BME280;15675;52.870;-1.416;2023-02-18T05:00:09;101043.34;;;11.26;100.00
28448;BME280;15675;52.870;-1.416;2023-02-18T05:02:38;101044.22;;;11.33;100.00
28448;BME280;15675;52.870;-1.416;2023-02-18T05:05:03;101032.03;;;11.16;100.00
28448;BME280;15675;52.870;-1.416;2023-02-18T05:07:29;101032.88;;;11.17;100.00
28448;BME280;15675;52.870;-1.416;2023-02-18T05:09:55;101055.41;;;11.16;100.00
28448;BME280;15675;52.870;-1.416;2023-02-18T05:12:20;101034.38;;;10.79;100.00
28448;BME280;15675;52.870;-1.416;2023-02-18T05:14:46;101031.78;;;10.79;100.00
28448;BME280;15675;52.870;-1.416;2023-02-18T05:17:11;101035.34;;;10.94;100.00
28448;BME280;15675;52.870;-1.416;2023-02-18T05:19:37;101037.13;;;11.02;100.00
28448;BME280;15675;52.870;-1.416;2023-02-18T05:22:02;101030.13;;;10.92;100.00
28448;BME280;15675;52.870;-1.416;2023-02-18T05:24:28;101017.94;;;10.80;100.00
28448;BME280;15675;52.870;-1.416;2023-02-18T05:26:53;101019.63;;;10.77;100.00
28448;BME280;15675;52.870;-1.416;2023-02-18T05:29:19;101024.81;;;10.74;100.00
28448;BME280;15675;52.870;-1.416;2023-02-18T05:31:44;101020.53;;;10.82;100.00
28448;BME280;15675;52.870;-1.416;2023-02-18T05:34:10;101024.84;;;10.83;100.00
28448;BME280;15675;52.870;-1.416;2023-02-18T05:36:35;101031.81;;;10.87;100.00
28448;BME280;15675;52.870;-1.416;2023-02-18T05:39:01;101032.59;;;10.77;100.00
28448;BME280;15675;52.870;-1.416;2023-02-18T05:41:26;101042.22;;;10.90;100.00
28448;BME280;15675;52.870;-1.416;2023-02-18T05:43:52;101030.13;;;10.89;100.00
28448;BME280;15675;52.870;-1.416;2023-02-18T05:46:36;101013.59;;;10.82;100.00
28448;BME280;15675;52.870;-1.416;2023-02-18T05:49:02;101017.94;;;10.80;100.00
28448;BME280;15675;52.870;-1.416;2023-02-18T05:51:27;101037.97;;;10.98;100.00
28448;BME280;15675;52.870;-1.416;2023-02-18T05:53:53;101027.59;;;11.01;100.00
28448;BME280;15675;52.870;-1.416;2023-02-18T05:56:19;101034.56;;;11.09;100.00
28448;BME280;15675;52.870;-1.416;2023-02-18T05:58:45;101031.22;;;11.28;100.00
28448;BME280;15675;52.870;-1.416;2023-02-18T06:01:11;101035.38;;;11.01;100.00
28448;BME280;15675;52.870;-1.416;2023-02-18T06:03:36;101030.13;;;10.89;100.00
28448;BME280;15675;52.870;-1.416;2023-02-18T06:06:02;101030.94;;;10.85;100.00
28448;BME280;15675;52.870;-1.416;2023-02-18T06:08:28;101020.59;;;10.91;100.00
28448;BME280;15675;52.870;-1.416;2023-02-18T06:10:53;101031.06;;;11.02;100.00
28448;BME280;15675;52.870;-1.416;2023-02-18T06:13:19;101019.72;;;10.89;100.00
28448;BME280;15675;52.870;-1.416;2023-02-18T06:15:45;101011.03;;;10.87;100.00
28448;BME280;15675;52.870;-1.416;2023-02-18T06:18:10;101022.25;;;10.81;100.00
28448;BME280;15675;52.870;-1.416;2023-02-18T06:20:38;101034.63;;;11.16;100.00
28448;BME280;15675;52.870;-1.416;2023-02-18T06:23:03;101043.97;;;10.91;100.00
28448;BME280;15675;52.870;-1.416;2023-02-18T06:25:29;101037.94;;;10.97;100.00
28448;BME280;15675;52.870;-1.416;2023-02-18T06:27:54;101040.66;;;11.12;100.00
28448;BME280;15675;52.870;-1.416;2023-02-18T06:30:20;101041.41;;;10.96;100.00
28448;BME280;15675;52.870;-1.416;2023-02-18T06:32:46;101040.69;;;11.17;100.00
28448;BME280;15675;52.870;-1.416;2023-02-18T06:35:11;101043.16;;;11.00;100.00
28448;BME280;15675;52.870;-1.416;2023-02-18T06:37:37;101048.47;;;11.18;100.00
28448;BME280;15675;52.870;-1.416;2023-02-18T06:40:03;101030.25;;;11.11;100.00
28448;BME280;15675;52.870;-1.416;2023-02-18T06:42:29;101049.38;;;11.17;100.00
28448;BME280;15675;52.870;-1.416;2023-02-18T06:44:54;101064.00;;;11.04;100.00
28448;BME280;15675;52.870;-1.416;2023-02-18T06:47:20;101062.28;;;11.13;100.00
28448;BME280;15675;52.870;-1.416;2023-02-18T06:49:45;101062.25;;;11.05;100.00
28448;BME280;15675;52.870;-1.416;2023-02-18T06:52:11;101041.53;;;11.14;100.00
28448;BME280;15675;52.870;-1.416;2023-02-18T06:54:36;101030.22;;;11.04;100.00
28448;BME280;15675;52.870;-1.416;2023-02-18T06:57:02;101040.56;;;11.00;100.00
28448;BME280;15675;52.870;-1.416;2023-02-18T06:59:27;101034.50;;;10.96;100.00
28448;BME280;15675;52.870;-1.416;2023-02-18T07:01:53;101049.28;;;11.08;100.00
28448;BME280;15675;52.870;-1.416;2023-02-18T07:04:18;101047.59;;;11.15;100.00
28448;BME280;15675;52.870;-1.416;2023-02-18T07:06:44;101062.19;;;10.97;100.00
28448;BME280;15675;52.870;-1.416;2023-02-18T07:09:09;101044.88;;;10.96;100.00
28448;BME280;15675;52.870;-1.416;2023-02-18T07:11:35;101038.03;;;11.04;100.00
28448;BME280;15675;52.870;-1.416;2023-02-18T07:14:01;101035.28;;;10.86;100.00
28448;BME280;15675;52.870;-1.416;2023-02-18T07:16:26;101037.00;;;10.85;100.00
28448;BME280;15675;52.870;-1.416;2023-02-18T07:18:52;101038.88;;;11.03;100.00
28448;BME280;15675;52.870;-1.416;2023-02-18T07:21:17;101058.03;;;11.24;100.00
28448;BME280;15675;52.870;-1.416;2023-02-18T07:23:43;101058.94;;;11.25;100.00
28448;BME280;15675;52.870;-1.416;2023-02-18T07:26:11;101068.38;;;11.12;100.00
28448;BME280;15675;52.870;-1.416;2023-02-18T07:28:37;101070.97;;;11.13;100.00
28448;BME280;15675;52.870;-1.416;2023-02-18T07:31:04;101047.63;;;11.16;100.00
28448;BME280;15675;52.870;-1.416;2023-02-18T07:33:30;101055.41;;;11.19;100.00
28448;BME280;15675;52.870;-1.416;2023-02-18T07:35:58;101065.72;;;11.09;100.00
28448;BME280;15675;52.870;-1.416;2023-02-18T07:38:24;101084.00;;;11.18;100.00
28448;BME280;15675;52.870;-1.416;2023-02-18T07:40:50;101069.25;;;11.18;100.00
28448;BME280;15675;52.870;-1.416;2023-02-18T07:43:16;101084.00;;;11.21;100.00
28448;BME280;15675;52.870;-1.416;2023-02-18T07:45:43;101097.16;;;11.46;100.00
28448;BME280;15675;52.870;-1.416;2023-02-18T07:48:09;101091.19;;;11.59;100.00
28448;BME280;15675;52.870;-1.416;2023-02-18T07:50:35;101086.69;;;11.29;100.00
28448;BME280;15675;52.870;-1.416;2023-02-18T07:53:04;101083.31;;;11.51;100.00
28448;BME280;15675;52.870;-1.416;2023-02-18T07:55:30;101082.38;;;11.37;100.00
28448;BME280;15675;52.870;-1.416;2023-02-18T07:58:22;101105.03;;;11.55;100.00
28448;BME280;15675;52.870;-1.416;2023-02-18T08:00:49;101112.84;;;11.60;100.00
28448;BME280;15675;52.870;-1.416;2023-02-18T08:03:16;101126.78;;;11.71;100.00
28448;BME280;15675;52.870;-1.416;2023-02-18T08:05:42;101135.47;;;11.71;100.00
28448;BME280;15675;52.870;-1.416;2023-02-18T08:08:11;101114.69;;;11.81;100.00
28448;BME280;15675;52.870;-1.416;2023-02-18T08:10:37;101113.75;;;11.69;100.00
28448;BME280;15675;52.870;-1.416;2023-02-18T08:13:03;101114.72;;;11.87;100.00
28448;BME280;15675;52.870;-1.416;2023-02-18T08:15:28;101089.44;;;11.58;100.00
28448;BME280;15675;52.870;-1.416;2023-02-18T08:17:54;101120.72;;;11.70;100.00
28448;BME280;15675;52.870;-1.416;2023-02-18T08:20:19;101117.25;;;11.71;100.00
28448;BME280;15675;52.870;-1.416;2023-02-18T08:22:45;101108.56;;;11.72;100.00
28448;BME280;15675;52.870;-1.416;2023-02-18T08:25:10;101120.72;;;11.77;100.00
28448;BME280;15675;52.870;-1.416;2023-02-18T08:27:36;101123.25;;;11.60;100.00
28448;BME280;15675;52.870;-1.416;2023-02-18T08:30:02;101139.78;;;11.75;100.00
28448;BME280;15675;52.870;-1.416;2023-02-18T08:32:28;101134.66;;;11.85;100.00
28448;BME280;15675;52.870;-1.416;2023-02-18T08:34:54;101137.16;;;11.69;100.00
28448;BME280;15675;52.870;-1.416;2023-02-18T08:37:19;101140.75;;;11.90;100.00
28448;BME280;15675;52.870;-1.416;2023-02-18T08:39:45;101160.47;;;11.57;100.00
28448;BME280;15675;52.870;-1.416;2023-02-18T08:42:10;101160.78;;;11.99;100.00
28448;BME280;15675;52.870;-1.416;2023-02-18T08:44:36;101167.53;;;11.75;100.00
28448;BME280;15675;52.870;-1.416;2023-02-18T08:47:02;101168.47;;;11.89;100.00
28448;BME280;15675;52.870;-1.416;2023-02-18T08:49:27;101158.91;;;11.81;100.00
28448;BME280;15675;52.870;-1.416;2023-02-18T08:51:53;101178.81;;;11.77;100.00
28448;BME280;15675;52.870;-1.416;2023-02-18T08:54:18;101179.78;;;11.90;100.00
28448;BME280;15675;52.870;-1.416;2023-02-18T08:56:44;101181.47;;;11.85;100.00
28448;BME280;15675;52.870;-1.416;2023-02-18T08:59:09;101185.75;;;11.77;100.00
28448;BME280;15675;52.870;-1.416;2023-02-18T09:01:35;101185.03;;;11.99;100.00
28448;BME280;15675;52.870;-1.416;2023-02-18T09:04:01;101186.81;;;12.06;100.00
28448;BME280;15675;52.870;-1.416;2023-02-18T09:06:27;101192.00;;;12.05;100.00
28448;BME280;15675;52.870;-1.416;2023-02-18T09:08:52;101192.97;;;12.24;100.00
28448;BME280;15675;52.870;-1.416;2023-02-18T09:11:18;101205.19;;;12.45;100.00
28448;BME280;15675;52.870;-1.416;2023-02-18T09:13:44;101194.78;;;12.39;100.00
28448;BME280;15675;52.870;-1.416;2023-02-18T09:16:13;101199.06;;;12.23;100.00
28448;BME280;15675;52.870;-1.416;2023-02-18T09:18:40;101206.84;;;12.23;100.00
28448;BME280;15675;52.870;-1.416;2023-02-18T09:21:07;101211.16;;;12.19;100.00
28448;BME280;15675;52.870;-1.416;2023-02-18T09:23:33;101210.25;;;12.13;100.00
28448;BME280;15675;52.870;-1.416;2023-02-18T09:26:02;101217.22;;;12.20;100.00
28448;BME280;15675;52.870;-1.416;2023-02-18T09:28:28;101217.28;;;12.32;100.00
28448;BME280;15675;52.870;-1.416;2023-02-18T09:30:53;101229.34;;;12.12;100.00
28448;BME280;15675;52.870;-1.416;2023-02-18T09:33:19;101241.72;;;12.67;100.00
28448;BME280;15675;52.870;-1.416;2023-02-18T09:35:45;101247.69;;;12.35;100.00
28448;BME280;15675;52.870;-1.416;2023-02-18T09:38:13;101240.06;;;12.92;100.00
28448;BME280;15675;52.870;-1.416;2023-02-18T09:40:43;101246.97;;;12.87;100.00
28448;BME280;15675;52.870;-1.416;2023-02-18T09:43:38;101250.44;;;12.70;100.00
28448;BME280;15675;52.870;-1.416;2023-02-18T09:46:18;101261.81;;;12.99;100.00
28448;BME280;15675;52.870;-1.416;2023-02-18T09:48:45;101258.31;;;12.95;100.00
28448;BME280;15675;52.870;-1.416;2023-02-18T09:51:13;101259.94;;;12.62;100.00
28448;BME280;15675;52.870;-1.416;2023-02-18T09:53:41;101276.53;;;12.93;100.00
28448;BME280;15675;52.870;-1.416;2023-02-18T09:56:11;101275.69;;;12.93;100.00
28448;BME280;15675;52.870;-1.416;2023-02-18T09:58:39;101289.50;;;12.67;100.00
28448;BME280;15675;52.870;-1.416;2023-02-18T10:01:26;101293.94;;;13.01;100.00
28448;BME280;15675;52.870;-1.416;2023-02-18T10:03:59;101291.19;;;12.57;100.00
28448;BME280;15675;52.870;-1.416;2023-02-18T10:06:29;101286.06;;;12.79;100.00
28448;BME280;15675;52.870;-1.416;2023-02-18T10:09:02;101288.66;;;12.87;100.00
28448;BME280;15675;52.870;-1.416;2023-02-18T10:11:40;101288.78;;;13.25;100.00
28448;BME280;15675;52.870;-1.416;2023-02-18T10:14:10;101300.94;;;13.22;100.00
28448;BME280;15675;52.870;-1.416;2023-02-18T10:16:36;101296.56;;;13.10;100.00
28448;BME280;15675;52.870;-1.416;2023-02-18T10:19:24;101296.59;;;13.19;100.00
28448;BME280;15675;52.870;-1.416;2023-02-18T10:21:52;101298.16;;;12.68;100.00
28448;BME280;15675;52.870;-1.416;2023-02-18T10:27:17;101298.22;;;12.82;100.00
28448;BME280;15675;52.870;-1.416;2023-02-18T10:29:43;101304.34;;;12.98;100.00
28448;BME280;15675;52.870;-1.416;2023-02-18T10:32:21;101299.06;;;12.79;100.00
28448;BME280;15675;52.870;-1.416;2023-02-18T10:34:51;101280.94;;;13.11;100.00
28448;BME280;15675;52.870;-1.416;2023-02-18T10:40:16;101290.47;;;13.11;100.00
28448;BME280;15675;52.870;-1.416;2023-02-18T10:43:01;101285.28;;;13.25;100.00
28448;BME280;15675;52.870;-1.416;2023-02-18T10:50:43;101267.88;;;13.05;100.00
28448;BME280;15675;52.870;-1.416;2023-02-18T10:53:32;101260.16;;;13.35;100.00
28448;BME280;15675;52.870;-1.416;2023-02-18T10:55:59;101247.06;;;13.24;100.00
28448;BME280;15675;52.870;-1.416;2023-02-18T11:01:19;101244.50;;;13.50;100.00
28448;BME280;15675;52.870;-1.416;2023-02-18T11:03:50;101241.03;;;13.37;100.00
28448;BME280;15675;52.870;-1.416;2023-02-18T11:08:45;101226.25;;;13.64;100.00
28448;BME280;15675;52.870;-1.416;2023-02-18T11:11:37;101241.03;;;13.59;100.00
28448;BME280;15675;52.870;-1.416;2023-02-18T11:14:06;101243.59;;;13.97;100.00
28448;BME280;15675;52.870;-1.416;2023-02-18T11:16:43;101238.38;;;13.96;100.00
28448;BME280;15675;52.870;-1.416;2023-02-18T11:22:21;101253.97;;;14.18;100.00
28448;BME280;15675;52.870;-1.416;2023-02-18T11:24:47;101245.34;;;13.97;100.00
28448;BME280;15675;52.870;-1.416;2023-02-18T11:29:58;101236.56;;;14.13;100.00
28448;BME280;15675;52.870;-1.416;2023-02-18T11:32:27;101255.66;;;14.39;100.00
28448;BME280;15675;52.870;-1.416;2023-02-18T11:34:53;101252.97;;;14.62;100.00
28448;BME280;15675;52.870;-1.416;2023-02-18T11:37:20;101255.63;;;14.40;100.00
28448;BME280;15675;52.870;-1.416;2023-02-18T11:39:49;101234.81;;;14.20;99.46
28448;BME280;15675;52.870;-1.416;2023-02-18T11:42:18;101256.59;;;14.11;97.81
28448;BME280;15675;52.870;-1.416;2023-02-18T11:44:55;101242.66;;;14.20;97.78
28448;BME280;15675;52.870;-1.416;2023-02-18T11:47:25;101254.78;;;14.33;96.93
28448;BME280;15675;52.870;-1.416;2023-02-18T11:50:20;101254.84;;;14.24;97.10
28448;BME280;15675;52.870;-1.416;2023-02-18T11:52:48;101255.69;;;14.25;96.28
28448;BME280;15675;52.870;-1.416;2023-02-18T11:57:50;101254.75;;;14.54;96.40
28448;BME280;15675;52.870;-1.416;2023-02-18T12:02:48;101238.78;;;15.06;96.03
28448;BME280;15675;52.870;-1.416;2023-02-18T12:05:21;101239.50;;;15.30;94.87
28448;BME280;15675;52.870;-1.416;2023-02-18T12:07:49;101234.66;;;14.63;92.53
28448;BME280;15675;52.870;-1.416;2023-02-18T12:10:24;101229.34;;;14.83;92.88
28448;BME280;15675;52.870;-1.416;2023-02-18T12:15:23;101218.00;;;14.88;92.28
28448;BME280;15675;52.870;-1.416;2023-02-18T12:26:22;101214.66;;;14.64;95.63
28448;BME280;15675;52.870;-1.416;2023-02-18T12:28:54;101230.44;;;14.28;96.44
28448;BME280;15675;52.870;-1.416;2023-02-18T12:34:37;101253.84;;;14.64;97.86
28448;BME280;15675;52.870;-1.416;2023-02-18T12:40:02;101240.75;;;14.58;96.90
28448;BME280;15675;52.870;-1.416;2023-02-18T12:48:19;101220.94;;;14.10;97.24
28448;BME280;15675;52.870;-1.416;2023-02-18T13:12:37;101229.69;;;13.95;100.00
28448;BME280;15675;52.870;-1.416;2023-02-18T13:15:27;101238.22;;;14.48;100.00
28448;BME280;15675;52.870;-1.416;2023-02-18T13:17:57;101227.81;;;14.33;100.00
28448;BME280;15675;52.870;-1.416;2023-02-18T13:20:35;101229.56;;;14.34;100.00
28448;BME280;15675;52.870;-1.416;2023-02-18T13:23:05;101231.31;;;14.29;100.00
28448;BME280;15675;52.870;-1.416;2023-02-18T13:25:35;101237.41;;;14.25;100.00
28448;BME280;15675;52.870;-1.416;2023-02-18T13:28:06;101214.81;;;14.16;100.00
28448;BME280;15675;52.870;-1.416;2023-02-18T13:39:08;101238.38;;;13.94;100.00
28448;BME280;15675;52.870;-1.416;2023-02-18T13:41:38;101233.03;;;14.35;100.00
28448;BME280;15675;52.870;-1.416;2023-02-18T13:46:55;101227.75;;;14.50;100.00
28448;BME280;15675;52.870;-1.416;2023-02-18T13:49:23;101212.22;;;14.14;100.00
28448;BME280;15675;52.870;-1.416;2023-02-18T13:51:54;101214.78;;;14.21;99.28
28448;BME280;15675;52.870;-1.416;2023-02-18T13:54:27;101218.16;;;14.55;97.59
28448;BME280;15675;52.870;-1.416;2023-02-18T13:57:00;101219.13;;;14.28;95.71
28448;BME280;15675;52.870;-1.416;2023-02-18T14:09:47;101218.31;;;14.10;85.23
28448;BME280;15675;52.870;-1.416;2023-02-18T14:31:05;101181.78;;;14.10;79.82
28448;BME280;15675;52.870;-1.416;2023-02-18T14:34:07;101178.31;;;14.02;78.97
28448;BME280;15675;52.870;-1.416;2023-02-18T14:36:45;101193.03;;;14.25;78.92
28448;BME280;15675;52.870;-1.416;2023-02-18T14:39:42;101168.72;;;14.13;77.98
28448;BME280;15675;52.870;-1.416;2023-02-18T14:50:34;101193.97;;;14.04;80.09
28448;BME280;15675;52.870;-1.416;2023-02-18T14:53:07;101185.28;;;14.03;80.16
28448;BME280;15675;52.870;-1.416;2023-02-18T14:55:41;101190.41;;;14.28;80.29
28448;BME280;15675;52.870;-1.416;2023-02-18T15:00:57;101188.69;;;14.21;80.68
28448;BME280;15675;52.870;-1.416;2023-02-18T15:03:25;101196.66;;;13.87;82.09
28448;BME280;15675;52.870;-1.416;2023-02-18T15:05:51;101206.22;;;13.83;83.73
28448;BME280;15675;52.870;-1.416;2023-02-18T15:08:23;101212.22;;;14.14;85.18
28448;BME280;15675;52.870;-1.416;2023-02-18T15:11:07;101214.03;;;13.92;87.58
28448;BME280;15675;52.870;-1.416;2023-02-18T15:13:35;101210.56;;;13.87;90.43
28448;BME280;15675;52.870;-1.416;2023-02-18T15:16:06;101216.63;;;13.98;91.81
28448;BME280;15675;52.870;-1.416;2023-02-18T15:18:37;101212.28;;;13.96;91.72